Time;durP1;ratioP1;P1;durP2;ratioP2;P2;SDS_P1;SDS_P2;PMS_P1;PMS_P2;Temp;Humidity;BMP_temperature;BMP_pressure;BME280_temperature;BME280_humidity;BME280_pressure;Samples;Min_cycle;Max_cycle;Signal;HPM_P1;HPM_P2
2021/03/24 00:01:13;;;;;;;40.27;23.60;;;6.80;99.90;;;;;;5046732;28;20641;-47
2021/03/24 00:03:39;;;;;;;39.67;22.37;;;6.80;99.90;;;;;;5032260;28;20203;-48
2021/03/24 00:06:06;;;;;;;41.43;24.03;;;6.80;99.90;;;;;;5044676;28;20584;-49
2021/03/24 00:08:31;;;;;;;44.00;24.33;;;6.80;99.90;;;;;;5038099;28;20233;-53
2021/03/24 00:10:57;;;;;;;37.40;22.93;;;6.80;99.90;;;;;;5055386;28;20176;-51
2021/03/24 00:13:22;;;;;;;41.87;24.93;;;6.90;99.90;;;;;;5059110;28;20179;-52
2021/03/24 00:15:49;;;;;;;39.97;23.83;;;6.90;99.90;;;;;;5066375;28;20182;-50
2021/03/24 00:18:15;;;;;;;41.17;24.60;;;6.90;99.90;;;;;;5065323;28;20198;-48
2021/03/24 00:20:42;;;;;;;40.83;23.13;;;6.90;99.90;;;;;;5047323;28;20449;-50
2021/03/24 00:23:09;;;;;;;39.30;23.17;;;6.90;99.90;;;;;;5060362;28;20265;-51
2021/03/24 00:25:35;;;;;;;40.90;23.73;;;6.80;99.90;;;;;;5039249;28;20187;-50
2021/03/24 00:28:01;;;;;;;41.13;25.30;;;6.80;99.90;;;;;;5045739;28;20246;-51
2021/03/24 00:30:30;;;;;;;40.83;25.17;;;6.90;99.90;;;;;;5042041;28;20877;-47
2021/03/24 00:32:56;;;;;;;41.33;25.00;;;6.80;99.90;;;;;;5046405;28;20210;-48
2021/03/24 00:35:22;;;;;;;38.20;22.80;;;6.90;99.90;;;;;;5030191;28;20184;-51
2021/03/24 00:37:48;;;;;;;42.13;24.83;;;6.90;99.90;;;;;;5053933;28;20196;-50
2021/03/24 00:40:21;;;;;;;46.67;25.20;;;6.80;99.90;;;;;;5046838;28;20251;-51
2021/03/24 00:42:46;;;;;;;45.90;26.20;;;6.90;99.90;;;;;;5057424;28;20512;-47
2021/03/24 00:45:13;;;;;;;43.37;24.17;;;6.80;99.90;;;;;;5064433;28;20178;-52
2021/03/24 00:47:39;;;;;;;43.20;25.60;;;6.80;99.90;;;;;;5063744;28;20363;-48
2021/03/24 00:50:06;;;;;;;42.97;25.53;;;6.80;99.90;;;;;;5067040;28;20706;-49
2021/03/24 00:52:33;;;;;;;43.17;25.57;;;6.80;99.90;;;;;;5041040;28;20194;-49
2021/03/24 00:54:58;;;;;;;47.50;26.27;;;6.90;99.90;;;;;;5055489;28;20179;-50
2021/03/24 00:57:24;;;;;;;43.60;25.27;;;6.80;99.90;;;;;;5043285;28;20199;-53
2021/03/24 00:59:49;;;;;;;43.13;26.23;;;6.90;99.90;;;;;;5044975;28;20281;-50
2021/03/24 01:02:15;;;;;;;43.03;25.77;;;6.90;99.90;;;;;;5043775;28;20184;-53
2021/03/24 01:04:41;;;;;;;44.13;25.27;;;6.90;99.90;;;;;;5043604;28;20194;-47
2021/03/24 01:07:09;;;;;;;44.53;24.43;;;6.90;99.90;;;;;;5037679;28;20273;-53
2021/03/24 01:09:35;;;;;;;44.50;26.17;;;6.90;99.90;;;;;;5050970;28;20246;-48
2021/03/24 01:12:01;;;;;;;47.67;27.13;;;6.90;99.90;;;;;;5053505;28;20176;-47
2021/03/24 01:14:27;;;;;;;42.20;26.13;;;6.90;99.90;;;;;;5041356;28;20179;-46
2021/03/24 01:16:53;;;;;;;47.20;25.23;;;6.90;99.90;;;;;;5045208;28;20359;-47
2021/03/24 01:19:18;;;;;;;42.57;25.13;;;6.90;99.90;;;;;;5043099;28;20175;-50
2021/03/24 01:21:44;;;;;;;45.70;25.90;;;6.90;99.90;;;;;;5051634;28;20183;-48
2021/03/24 01:24:09;;;;;;;48.87;26.97;;;6.90;99.90;;;;;;5041246;28;20543;-48
2021/03/24 01:26:35;;;;;;;42.90;25.70;;;6.90;99.90;;;;;;5052318;28;20957;-51
2021/03/24 01:29:01;;;;;;;43.77;25.83;;;6.90;99.90;;;;;;5045790;28;20207;-49
2021/03/24 01:31:28;;;;;;;45.10;26.43;;;6.90;99.90;;;;;;5042039;28;20288;-49
2021/03/24 01:33:54;;;;;;;48.60;26.20;;;6.90;99.90;;;;;;5046236;28;20196;-48
2021/03/24 01:36:20;;;;;;;44.40;27.30;;;6.90;99.90;;;;;;5043096;28;20986;-52
2021/03/24 01:38:46;;;;;;;46.87;26.50;;;6.90;99.90;;;;;;5034564;28;20224;-50
2021/03/24 01:41:11;;;;;;;42.00;26.27;;;6.90;99.90;;;;;;5053310;28;20183;-52
2021/03/24 01:43:37;;;;;;;45.37;25.97;;;6.90;99.90;;;;;;5044641;28;20210;-49
2021/03/24 01:46:18;;;;;;;47.30;27.37;;;6.90;99.90;;;;;;5044914;28;20194;-48
2021/03/24 01:48:51;;;;;;;45.63;25.77;;;6.90;99.90;;;;;;5050221;28;20861;-48
2021/03/24 01:51:19;;;;;;;46.10;26.47;;;6.90;99.90;;;;;;5058755;28;20174;-49
2021/03/24 01:53:45;;;;;;;47.70;27.43;;;6.90;99.90;;;;;;5064340;28;20669;-49
2021/03/24 01:56:13;;;;;;;41.83;25.67;;;6.90;99.90;;;;;;5043355;28;20183;-47
2021/03/24 01:58:38;;;;;;;46.10;26.30;;;6.90;99.90;;;;;;5047341;28;21185;-51
2021/03/24 02:01:08;;;;;;;52.10;27.80;;;6.90;99.90;;;;;;5050838;28;20187;-46
2021/03/24 02:03:34;;;;;;;48.97;27.23;;;6.90;99.90;;;;;;5040824;28;20186;-47
2021/03/24 02:06:08;;;;;;;49.67;26.87;;;6.90;99.90;;;;;;5044542;28;20655;-47
2021/03/24 02:08:38;;;;;;;42.33;26.50;;;6.90;99.90;;;;;;5040820;28;20214;-47
2021/03/24 02:11:09;;;;;;;51.23;26.77;;;6.90;99.90;;;;;;5031474;28;20188;-46
2021/03/24 02:13:52;;;;;;;48.03;26.80;;;6.90;99.90;;;;;;5031617;28;20242;-51
2021/03/24 02:16:28;;;;;;;44.43;25.57;;;6.90;99.90;;;;;;5042159;28;20251;-48
2021/03/24 02:18:55;;;;;;;51.30;26.70;;;7.00;99.90;;;;;;5044124;28;20201;-50
2021/03/24 02:21:27;;;;;;;49.57;27.97;;;7.00;99.90;;;;;;5049466;28;20178;-51
2021/03/24 02:24:06;;;;;;;45.67;26.87;;;7.00;99.90;;;;;;5049491;28;20669;-52
2021/03/24 02:27:01;;;;;;;46.33;25.83;;;7.00;99.90;;;;;;5045127;28;20206;-50
2021/03/24 02:29:28;;;;;;;43.50;25.80;;;7.00;99.90;;;;;;5045303;28;20908;-49
2021/03/24 02:31:55;;;;;;;44.63;25.77;;;7.00;99.90;;;;;;5044314;28;20555;-47
2021/03/24 02:34:25;;;;;;;46.27;28.07;;;7.00;99.90;;;;;;5041109;28;20225;-53
2021/03/24 02:36:56;;;;;;;46.47;27.37;;;7.00;99.90;;;;;;5043603;28;20183;-47
2021/03/24 02:39:24;;;;;;;47.17;28.50;;;7.00;99.90;;;;;;5041083;28;20639;-48
2021/03/24 02:41:51;;;;;;;50.43;27.33;;;7.00;99.90;;;;;;5055037;28;20191;-48
2021/03/24 02:44:18;;;;;;;47.00;29.13;;;7.00;99.90;;;;;;5048870;28;20198;-52
2021/03/24 02:46:44;;;;;;;48.23;28.00;;;7.00;99.90;;;;;;5039070;28;20301;-46
2021/03/24 02:57:24;;;;;;;49.93;27.93;;;7.00;99.90;;;;;;5030574;28;20181;-46
2021/03/24 02:59:52;;;;;;;48.30;28.57;;;7.00;99.90;;;;;;5038441;28;20187;-46
2021/03/24 03:02:23;;;;;;;50.53;28.33;;;6.90;99.90;;;;;;5051836;28;20645;-53
2021/03/24 03:04:57;;;;;;;54.17;29.37;;;6.90;99.90;;;;;;5057593;28;20180;-49
2021/03/24 03:07:45;;;;;;;46.20;27.47;;;6.90;99.90;;;;;;5040636;28;20260;-53
2021/03/24 03:10:14;;;;;;;51.33;29.67;;;6.90;99.90;;;;;;5044273;28;20560;-52
2021/03/24 03:12:49;;;;;;;51.40;28.30;;;6.90;99.90;;;;;;5041126;28;20905;-46
2021/03/24 03:15:22;;;;;;;50.73;29.90;;;6.90;99.90;;;;;;5035480;28;20197;-54
2021/03/24 03:17:54;;;;;;;54.73;30.07;;;6.90;99.90;;;;;;5050272;28;20317;-48
2021/03/24 03:20:26;;;;;;;52.70;28.37;;;6.90;99.90;;;;;;5060068;28;20266;-52
2021/03/24 03:23:09;;;;;;;50.07;27.77;;;6.90;99.90;;;;;;5063543;28;20178;-47
2021/03/24 03:25:38;;;;;;;51.23;27.87;;;6.90;99.90;;;;;;5059886;28;20166;-47
2021/03/24 03:28:17;;;;;;;54.57;28.70;;;6.90;99.90;;;;;;5064367;28;20242;-52
2021/03/24 03:30:48;;;;;;;57.30;29.70;;;6.90;99.90;;;;;;5041513;28;20182;-48
2021/03/24 03:33:17;;;;;;;51.90;28.43;;;6.90;99.90;;;;;;5044026;28;20187;-50
2021/03/24 03:35:43;;;;;;;47.03;27.50;;;6.90;99.90;;;;;;5042331;28;20870;-50
2021/03/24 03:38:16;;;;;;;50.57;28.53;;;6.90;99.90;;;;;;5043126;28;20217;-51
2021/03/24 03:40:44;;;;;;;49.30;28.13;;;7.00;99.90;;;;;;5040922;28;20416;-48
2021/03/24 03:43:13;;;;;;;48.63;27.77;;;7.00;99.90;;;;;;5042354;28;20187;-53
2021/03/24 03:45:41;;;;;;;51.63;28.10;;;7.00;99.90;;;;;;5037041;28;20198;-49
2021/03/24 03:48:10;;;;;;;48.27;26.93;;;7.00;99.90;;;;;;5045584;28;20252;-52
2021/03/24 03:50:35;;;;;;;53.50;29.13;;;7.00;99.90;;;;;;5040910;28;20181;-48
2021/03/24 03:53:22;;;;;;;44.10;27.13;;;7.00;99.90;;;;;;5043650;28;20176;-49
2021/03/24 03:55:59;;;;;;;45.80;26.77;;;7.00;99.90;;;;;;5042119;28;20179;-46
2021/03/24 03:58:41;;;;;;;52.97;29.57;;;7.00;99.90;;;;;;5039184;28;20203;-53
2021/03/24 04:01:22;;;;;;;49.90;27.40;;;7.00;99.90;;;;;;5040795;28;20204;-51
2021/03/24 04:04:20;;;;;;;51.47;28.10;;;6.90;99.90;;;;;;5053441;28;20202;-50
2021/03/24 04:07:02;;;;;;;50.07;28.93;;;7.00;99.90;;;;;;5065661;28;20199;-47
2021/03/24 04:09:27;;;;;;;49.40;28.80;;;6.90;99.90;;;;;;5061726;28;20194;-47
2021/03/24 04:11:54;;;;;;;54.93;28.67;;;7.00;99.90;;;;;;5067675;28;20179;-49
2021/03/24 04:14:26;;;;;;;53.67;28.50;;;6.90;99.90;;;;;;5063875;28;20185;-53
2021/03/24 04:16:53;;;;;;;59.90;32.13;;;6.90;99.90;;;;;;5050676;28;20233;-47
2021/03/24 04:19:23;;;;;;;55.07;30.53;;;6.90;99.90;;;;;;5039480;28;20195;-51
2021/03/24 04:21:53;;;;;;;49.70;28.20;;;6.90;99.90;;;;;;5045067;28;20191;-49
2021/03/24 04:24:23;;;;;;;54.57;30.23;;;6.90;99.90;;;;;;5042791;28;20190;-51
2021/03/24 04:26:54;;;;;;;51.00;28.87;;;6.90;99.90;;;;;;5045341;28;20267;-47
2021/03/24 04:29:26;;;;;;;49.10;27.13;;;6.90;99.90;;;;;;5043643;28;20222;-50
2021/03/24 04:31:54;;;;;;;49.57;28.37;;;6.90;99.90;;;;;;5060610;28;20171;-50
2021/03/24 04:34:21;;;;;;;52.23;29.17;;;6.90;99.90;;;;;;5038719;28;20191;-48
2021/03/24 04:36:51;;;;;;;51.27;27.73;;;6.90;99.90;;;;;;5046983;28;20186;-53
2021/03/24 04:39:26;;;;;;;51.40;29.27;;;6.90;99.90;;;;;;5044358;28;20541;-49
2021/03/24 04:41:55;;;;;;;49.83;25.63;;;6.90;99.90;;;;;;5054020;28;20195;-46
2021/03/24 04:44:27;;;;;;;46.33;26.47;;;6.90;99.90;;;;;;5058781;28;20193;-48
2021/03/24 04:47:00;;;;;;;45.50;24.90;;;6.90;99.90;;;;;;5067264;28;20194;-51
2021/03/24 04:49:27;;;;;;;44.73;25.50;;;6.90;99.90;;;;;;5039561;28;20264;-52
2021/03/24 04:51:54;;;;;;;44.40;25.83;;;6.90;99.90;;;;;;5026889;28;20541;-49
2021/03/24 04:54:34;;;;;;;44.67;24.97;;;6.90;99.90;;;;;;5023796;28;20176;-52
2021/03/24 04:57:06;;;;;;;39.77;23.77;;;6.90;99.90;;;;;;5027073;28;20241;-50
2021/03/24 04:59:45;;;;;;;46.77;24.87;;;6.90;99.90;;;;;;5022600;28;20172;-49
2021/03/24 05:02:24;;;;;;;37.97;23.67;;;6.90;99.90;;;;;;5036803;28;20193;-52
2021/03/24 05:05:14;;;;;;;46.13;25.47;;;6.90;99.90;;;;;;5036939;28;20266;-49
2021/03/24 05:08:01;;;;;;;40.87;24.80;;;6.90;99.90;;;;;;5058012;28;20341;-48
2021/03/24 05:10:30;;;;;;;43.80;24.13;;;6.90;99.90;;;;;;5054481;28;20182;-51
2021/03/24 05:13:12;;;;;;;43.07;23.77;;;6.90;99.90;;;;;;5057971;28;20186;-50
2021/03/24 05:15:43;;;;;;;40.87;23.80;;;6.90;99.90;;;;;;5063400;28;20901;-48
2021/03/24 05:18:13;;;;;;;37.93;22.93;;;6.90;99.90;;;;;;5063993;28;20237;-51
2021/03/24 05:20:52;;;;;;;38.93;22.87;;;6.90;99.90;;;;;;5040567;28;20412;-50
2021/03/24 05:23:21;;;;;;;34.87;21.17;;;6.90;99.90;;;;;;5063938;28;20170;-51
2021/03/24 05:26:03;;;;;;;42.53;22.80;;;6.90;99.90;;;;;;5065533;28;20671;-51
2021/03/24 05:28:39;;;;;;;37.50;22.57;;;6.90;99.90;;;;;;5042897;28;20816;-52
2021/03/24 05:31:09;;;;;;;40.97;23.97;;;6.90;99.90;;;;;;5038470;28;20191;-50
2021/03/24 05:33:41;;;;;;;42.57;23.57;;;6.90;99.90;;;;;;5046665;28;20199;-50
2021/03/24 05:36:25;;;;;;;40.97;23.47;;;6.90;99.90;;;;;;5036444;28;20182;-51
2021/03/24 05:38:53;;;;;;;43.57;25.07;;;6.90;99.90;;;;;;5062031;28;20687;-51
2021/03/24 05:41:35;;;;;;;47.97;25.37;;;6.90;99.90;;;;;;5052713;28;20190;-50
2021/03/24 05:44:28;;;;;;;47.90;25.73;;;6.90;99.90;;;;;;5040627;28;20802;-51
2021/03/24 05:47:15;;;;;;;43.07;25.60;;;6.90;99.90;;;;;;5036311;28;20191;-46
2021/03/24 05:49:58;;;;;;;46.53;26.80;;;6.90;99.90;;;;;;5025629;28;20222;-49
2021/03/24 05:53:16;;;;;;;54.03;28.53;;;6.90;99.90;;;;;;5028409;28;20203;-48
2021/03/24 05:55:57;;;;;;;43.27;26.83;;;6.90;99.90;;;;;;4978778;28;20566;-49
2021/03/24 05:58:41;;;;;;;51.00;29.17;;;6.80;99.90;;;;;;5029008;28;20203;-49
2021/03/24 06:01:21;;;;;;;51.13;28.67;;;6.80;99.90;;;;;;5043919;28;20221;-53
2021/03/24 06:04:01;;;;;;;52.87;28.53;;;6.80;99.90;;;;;;5064267;28;20182;-49
2021/03/24 06:06:53;;;;;;;50.87;29.77;;;6.90;99.90;;;;;;5021227;28;20560;-52
2021/03/24 06:09:53;;;;;;;57.60;31.57;;;6.90;99.90;;;;;;5041606;28;20314;-50
2021/03/24 06:12:27;;;;;;;56.57;30.40;;;6.90;99.90;;;;;;5041684;28;20269;-48
2021/03/24 06:15:25;;;;;;;53.20;30.60;;;6.90;99.90;;;;;;5044495;28;20171;-49
2021/03/24 06:18:12;;;;;;;55.47;30.10;;;6.90;99.90;;;;;;5039689;28;20265;-47
2021/03/24 06:20:49;;;;;;;58.97;31.90;;;6.90;99.90;;;;;;5030265;28;20190;-52
2021/03/24 06:23:42;;;;;;;54.53;31.77;;;6.90;99.90;;;;;;5048336;28;20519;-52
2021/03/24 06:26:24;;;;;;;62.30;33.33;;;6.90;99.90;;;;;;5038905;28;20196;-49
2021/03/24 06:29:11;;;;;;;61.73;32.57;;;7.00;99.90;;;;;;5043586;28;20207;-48
2021/03/24 06:31:52;;;;;;;64.67;33.57;;;7.00;99.90;;;;;;5052519;28;20225;-46
2021/03/24 06:34:55;;;;;;;61.07;33.37;;;7.00;99.90;;;;;;5029550;28;20215;-48
2021/03/24 06:37:54;;;;;;;56.60;31.10;;;7.00;99.90;;;;;;5025491;28;20206;-47
2021/03/24 06:40:31;;;;;;;59.13;31.00;;;7.00;99.90;;;;;;5029744;28;20191;-48
2021/03/24 06:43:16;;;;;;;58.50;33.00;;;7.00;99.90;;;;;;5043213;28;20270;-53
2021/03/24 06:46:19;;;;;;;57.30;30.73;;;7.10;99.90;;;;;;5042820;28;20275;-48
2021/03/24 06:48:56;;;;;;;55.23;29.43;;;7.10;99.90;;;;;;5036409;28;20612;-48
2021/03/24 06:52:01;;;;;;;51.87;29.27;;;7.20;99.90;;;;;;5035728;28;20171;-47
2021/03/24 06:54:52;;;;;;;59.67;31.33;;;7.20;99.90;;;;;;5041298;28;20179;-47
2021/03/24 06:57:51;;;;;;;55.63;29.37;;;7.20;99.90;;;;;;5032598;28;20203;-51
2021/03/24 07:01:01;;;;;;;55.37;29.80;;;7.30;99.90;;;;;;5046312;28;20211;-51
2021/03/24 07:03:51;;;;;;;54.23;29.20;;;7.30;99.90;;;;;;5032131;28;20195;-46
2021/03/24 07:06:38;;;;;;;52.73;28.70;;;7.30;99.90;;;;;;5032576;28;20214;-48
2021/03/24 07:09:41;;;;;;;52.00;28.90;;;7.40;99.90;;;;;;5028858;28;20214;-53
2021/03/24 07:12:15;;;;;;;51.17;28.03;;;7.40;99.90;;;;;;5028826;28;20633;-48
2021/03/24 07:15:18;;;;;;;49.43;30.00;;;7.40;99.90;;;;;;5039502;28;20187;-48
2021/03/24 07:18:21;;;;;;;49.50;29.33;;;7.40;99.90;;;;;;5044224;28;20206;-49
2021/03/24 07:21:17;;;;;;;56.20;30.40;;;7.50;99.90;;;;;;5046466;28;20199;-48
2021/03/24 07:24:06;;;;;;;53.83;29.60;;;7.50;99.90;;;;;;5011983;28;20191;-48
2021/03/24 07:26:41;;;;;;;52.87;28.27;;;7.50;99.90;;;;;;5049482;28;20202;-48
2021/03/24 07:29:43;;;;;;;55.10;30.13;;;7.50;99.90;;;;;;5040965;28;20645;-51
2021/03/24 07:32:37;;;;;;;51.90;30.47;;;7.60;99.90;;;;;;5042731;28;20167;-51
2021/03/24 07:35:20;;;;;;;54.63;31.03;;;7.60;99.90;;;;;;5036596;28;20182;-53
2021/03/24 07:38:07;;;;;;;56.40;30.17;;;7.70;99.90;;;;;;5033585;28;20257;-47
2021/03/24 07:40:47;;;;;;;53.00;29.97;;;7.70;99.90;;;;;;5032195;28;20183;-48
2021/03/24 07:43:36;;;;;;;54.77;29.87;;;7.70;99.90;;;;;;5042148;28;20178;-51
2021/03/24 07:46:28;;;;;;;60.43;29.70;;;7.80;99.90;;;;;;5026888;28;20195;-52
2021/03/24 07:48:59;;;;;;;50.63;28.93;;;7.70;99.90;;;;;;5027152;28;20215;-51
2021/03/24 07:51:45;;;;;;;52.57;29.40;;;7.80;99.90;;;;;;5024051;28;20176;-49
2021/03/24 07:54:24;;;;;;;59.07;27.97;;;7.80;99.90;;;;;;5020509;28;20271;-52
2021/03/24 07:57:09;;;;;;;55.83;28.27;;;7.90;99.90;;;;;;5058235;28;20189;-50
2021/03/24 08:00:00;;;;;;;44.83;26.43;;;7.90;99.90;;;;;;5053288;28;20823;-52
2021/03/24 08:02:55;;;;;;;50.43;26.23;;;8.00;99.90;;;;;;5053396;28;20170;-53
2021/03/24 08:05:39;;;;;;;49.73;29.20;;;8.00;99.90;;;;;;5059274;28;20695;-52
2021/03/24 08:08:13;;;;;;;50.53;26.97;;;8.10;99.90;;;;;;5042662;28;20239;-50
2021/03/24 08:11:05;;;;;;;57.93;29.87;;;8.10;99.90;;;;;;5026651;28;20227;-53
2021/03/24 08:14:09;;;;;;;56.87;29.47;;;8.20;99.90;;;;;;5028792;28;20575;-53
2021/03/24 08:16:59;;;;;;;46.20;28.20;;;8.30;99.90;;;;;;5037909;28;20183;-50
2021/03/24 08:19:35;;;;;;;49.20;28.10;;;6.70;99.90;;;;;;5033073;28;20209;-52
2021/03/24 08:22:14;;;;;;;50.27;28.73;;;8.20;99.90;;;;;;5041123;28;20179;-50
2021/03/24 08:24:48;;;;;;;52.60;27.30;;;8.20;99.90;;;;;;5031528;28;20948;-51
2021/03/24 08:27:36;;;;;;;56.03;29.90;;;8.20;99.90;;;;;;5040779;28;20214;-46
2021/03/24 08:30:14;;;;;;;49.07;29.63;;;8.30;99.90;;;;;;5050304;28;20587;-48
2021/03/24 08:33:01;;;;;;;56.67;29.23;;;8.40;99.90;;;;;;5042262;28;20182;-51
2021/03/24 08:35:38;;;;;;;56.43;30.13;;;8.50;99.90;;;;;;5044194;28;20179;-51
2021/03/24 08:38:15;;;;;;;56.37;29.77;;;8.70;99.90;;;;;;5046174;28;20199;-48
2021/03/24 08:41:11;;;;;;;54.33;30.77;;;8.80;99.90;;;;;;5026046;28;20191;-47
2021/03/24 08:43:56;;;;;;;58.63;32.10;;;8.80;99.90;;;;;;5037752;28;20187;-52
2021/03/24 08:46:44;;;;;;;64.17;33.03;;;9.00;99.90;;;;;;5038364;28;20540;-50
2021/03/24 08:49:20;;;;;;;59.93;33.67;;;9.10;99.90;;;;;;5035783;28;20211;-51
2021/03/24 08:52:12;;;;;;;59.37;32.07;;;9.10;99.90;;;;;;5044246;28;20179;-49
2021/03/24 08:54:49;;;;;;;48.63;29.37;;;9.30;99.90;;;;;;5057009;28;20163;-51
2021/03/24 08:58:04;;;;;;;54.73;30.77;;;9.40;99.90;;;;;;5034328;28;20286;-48
2021/03/24 09:01:09;;;;;;;56.90;31.43;;;9.40;99.90;;;;;;5036471;28;20584;-46
2021/03/24 09:03:50;;;;;;;54.67;31.17;;;9.50;99.90;;;;;;5034635;28;20186;-51
2021/03/24 09:06:37;;;;;;;58.60;32.87;;;9.60;99.90;;;;;;5029714;28;20174;-52
2021/03/24 09:09:28;;;;;;;54.33;29.10;;;9.70;99.90;;;;;;5045206;28;20215;-47
2021/03/24 09:12:22;;;;;;;50.63;29.97;;;9.70;99.90;;;;;;5027277;28;20190;-47
2021/03/24 09:15:12;;;;;;;50.40;30.30;;;9.70;99.90;;;;;;5037402;28;20196;-46
2021/03/24 09:17:55;;;;;;;56.73;30.13;;;9.80;99.90;;;;;;5034395;28;20193;-53
2021/03/24 09:20:42;;;;;;;53.70;30.60;;;9.70;99.90;;;;;;5037126;28;20191;-52
2021/03/24 09:23:32;;;;;;;52.73;27.47;;;9.60;99.90;;;;;;5027920;28;20241;-50
2021/03/24 09:26:13;;;;;;;54.87;29.03;;;9.50;99.90;;;;;;5040917;28;20384;-46
2021/03/24 09:29:08;;;;;;;49.43;29.57;;;9.50;99.90;;;;;;5031865;28;20210;-56
2021/03/24 09:31:48;;;;;;;49.63;29.60;;;9.60;99.90;;;;;;5049230;28;20204;-55
2021/03/24 09:34:49;;;;;;;53.87;30.80;;;9.70;99.90;;;;;;5041734;28;20320;-48
2021/03/24 09:37:37;;;;;;;52.17;29.47;;;9.90;99.90;;;;;;5039794;28;20198;-52
2021/03/24 09:40:09;;;;;;;51.50;30.20;;;10.00;99.90;;;;;;5035486;28;20552;-47
2021/03/24 09:42:45;;;;;;;51.37;29.13;;;10.20;99.90;;;;;;5024267;28;20223;-54
2021/03/24 09:45:14;;;;;;;55.73;29.93;;;10.40;99.90;;;;;;5033776;28;20191;-50
2021/03/24 09:48:01;;;;;;;53.43;28.50;;;10.40;99.90;;;;;;5040533;28;20206;-54
2021/03/24 09:50:32;;;;;;;47.27;27.93;;;10.50;99.90;;;;;;5027539;28;20570;-54
2021/03/24 09:53:16;;;;;;;47.43;28.97;;;10.70;99.90;;;;;;5038763;28;20180;-51
2021/03/24 09:55:44;;;;;;;48.20;29.23;;;10.70;99.90;;;;;;5037412;28;20183;-52
2021/03/24 09:58:22;;;;;;;47.17;26.37;;;10.70;99.90;;;;;;5028277;28;20280;-52
2021/03/24 10:01:12;;;;;;;50.10;28.33;;;10.80;99.90;;;;;;5037582;28;20313;-52
2021/03/24 10:03:56;;;;;;;51.87;32.43;;;10.70;99.90;;;;;;5040678;28;20188;-52
2021/03/24 10:06:50;;;;;;;50.90;29.60;;;10.80;99.90;;;;;;5040347;28;20214;-52
2021/03/24 10:09:24;;;;;;;46.67;28.90;;;10.80;99.90;;;;;;5041247;28;20301;-54
2021/03/24 10:12:11;;;;;;;48.93;29.03;;;10.70;99.90;;;;;;5043404;28;20652;-50
2021/03/24 10:14:45;;;;;;;48.93;29.90;;;10.80;99.90;;;;;;5040413;28;20574;-51
2021/03/24 10:17:23;;;;;;;45.43;29.63;;;10.90;99.90;;;;;;5036101;28;20307;-51
2021/03/24 10:19:57;;;;;;;45.87;28.90;;;10.90;99.90;;;;;;5035270;28;20549;-50
2021/03/24 10:22:33;;;;;;;51.83;30.27;;;11.00;99.90;;;;;;5037164;28;20198;-50
2021/03/24 10:25:11;;;;;;;55.27;30.83;;;11.00;99.90;;;;;;5037414;28;20203;-52
2021/03/24 10:27:43;;;;;;;54.27;30.90;;;11.10;99.90;;;;;;5044093;28;20198;-51
2021/03/24 10:30:11;;;;;;;51.83;31.00;;;11.10;99.90;;;;;;5033802;28;20202;-47
2021/03/24 10:33:08;;;;;;;45.50;28.33;;;11.10;99.90;;;;;;5052815;28;20175;-52
2021/03/24 10:35:42;;;;;;;44.87;28.00;;;11.20;99.90;;;;;;5043980;28;20274;-47
2021/03/24 10:38:11;;;;;;;46.63;27.77;;;11.20;99.90;;;;;;5033165;28;20290;-47
2021/03/24 10:40:43;;;;;;;46.33;28.37;;;11.10;99.90;;;;;;5034895;28;20191;-47
2021/03/24 10:43:09;;;;;;;48.47;29.00;;;11.10;99.90;;;;;;5036311;28;20187;-48
2021/03/24 10:45:57;;;;;;;43.97;27.90;;;11.20;99.90;;;;;;5033308;28;20207;-49
2021/03/24 10:48:30;;;;;;;49.03;29.40;;;11.30;99.90;;;;;;5043238;28;20223;-48
2021/03/24 10:51:08;;;;;;;56.97;29.67;;;11.40;99.90;;;;;;5036293;28;20546;-51
2021/03/24 10:53:35;;;;;;;49.90;30.27;;;11.40;99.90;;;;;;5039105;28;20543;-48
2021/03/24 10:56:31;;;;;;;48.63;29.23;;;11.40;99.90;;;;;;5039026;28;20222;-50
2021/03/24 10:58:59;;;;;;;41.07;25.73;;;11.40;99.90;;;;;;5036404;28;20218;-54
2021/03/24 11:01:41;;;;;;;40.40;25.07;;;11.50;99.90;;;;;;5030960;28;20175;-48
2021/03/24 11:04:36;;;;;;;37.30;22.13;;;11.60;99.90;;;;;;5047693;28;20206;-52
2021/03/24 11:07:10;;;;;;;37.47;22.60;;;11.70;99.90;;;;;;5030088;28;20186;-46
2021/03/24 11:09:49;;;;;;;36.00;22.50;;;11.80;99.90;;;;;;5035097;28;20202;-48
2021/03/24 11:12:20;;;;;;;41.77;26.00;;;11.60;99.90;;;;;;5038230;28;20183;-51
2021/03/24 11:15:00;;;;;;;47.80;28.97;;;11.60;99.90;;;;;;5035002;28;20755;-46
2021/03/24 11:17:37;;;;;;;43.97;25.60;;;11.80;99.90;;;;;;5029859;28;20309;-48
2021/03/24 11:20:12;;;;;;;44.60;26.67;;;11.70;99.90;;;;;;5043461;28;20619;-48
2021/03/24 11:22:48;;;;;;;48.33;30.40;;;11.70;99.90;;;;;;5032056;28;20762;-51
2021/03/24 11:25:31;;;;;;;43.37;26.67;;;11.70;99.90;;;;;;5023657;28;20200;-49
2021/03/24 11:28:15;;;;;;;49.37;27.40;;;11.90;99.90;;;;;;5028957;28;20203;-47
2021/03/24 11:30:45;;;;;;;43.00;26.93;;;12.10;99.90;;;;;;5030394;28;20195;-50
2021/03/24 11:33:32;;;;;;;54.80;30.50;;;12.20;99.90;;;;;;5028858;28;20183;-48
2021/03/24 11:36:03;;;;;;;48.43;29.13;;;12.30;99.90;;;;;;5040440;28;20356;-47
2021/03/24 11:38:34;;;;;;;43.60;27.47;;;12.50;99.90;;;;;;5032401;28;20581;-50
2021/03/24 11:41:06;;;;;;;45.93;28.57;;;12.40;99.90;;;;;;5041760;28;20866;-47
2021/03/24 11:43:37;;;;;;;45.37;29.77;;;12.50;99.90;;;;;;5033555;28;20207;-49
2021/03/24 11:46:43;;;;;;;44.53;28.57;;;12.70;99.90;;;;;;5037193;28;20214;-48
2021/03/24 11:49:27;;;;;;;46.43;28.47;;;12.60;99.90;;;;;;5032758;28;20223;-50
2021/03/24 11:52:10;;;;;;;43.37;27.87;;;12.50;99.90;;;;;;5034994;28;20186;-51
2021/03/24 11:54:57;;;;;;;44.17;27.03;;;12.40;99.90;;;;;;5034992;28;20240;-49
2021/03/24 11:57:49;;;;;;;42.13;27.23;;;12.30;99.90;;;;;;5042552;28;20191;-46
2021/03/24 12:00:33;;;;;;;45.43;28.53;;;12.30;99.90;;;;;;5033343;28;20201;-49
2021/03/24 12:03:12;;;;;;;48.07;27.47;;;12.20;99.90;;;;;;5026530;28;20180;-49
2021/03/24 12:05:56;;;;;;;39.40;26.60;;;12.30;99.90;;;;;;5038281;28;20187;-50
2021/03/24 12:08:45;;;;;;;42.17;26.43;;;12.50;99.90;;;;;;5035093;28;20253;-49
2021/03/24 12:11:32;;;;;;;42.57;26.80;;;12.80;99.90;;;;;;5035874;28;20297;-51
2021/03/24 12:14:10;;;;;;;39.40;25.70;;;13.00;99.90;;;;;;5033008;28;20237;-47
2021/03/24 12:16:42;;;;;;;46.10;26.70;;;13.00;99.90;;;;;;5028655;28;20188;-52
2021/03/24 12:19:28;;;;;;;47.40;28.90;;;13.10;99.90;;;;;;5041342;28;20202;-47
2021/03/24 12:21:56;;;;;;;42.70;27.07;;;13.10;99.90;;;;;;5039030;28;20190;-48
2021/03/24 12:24:27;;;;;;;42.83;28.40;;;13.10;99.90;;;;;;5031323;28;20644;-50
2021/03/24 12:27:04;;;;;;;43.13;26.43;;;13.20;99.90;;;;;;5026582;28;20203;-50
2021/03/24 12:29:29;;;;;;;42.80;27.67;;;13.00;99.90;;;;;;5037573;28;20340;-50
2021/03/24 12:32:00;;;;;;;41.33;25.87;;;12.90;99.90;;;;;;5038901;28;20240;-49
2021/03/24 12:34:34;;;;;;;47.80;28.50;;;12.90;99.90;;;;;;5045147;28;20175;-47
2021/03/24 12:37:02;;;;;;;43.97;28.20;;;12.90;99.90;;;;;;5036508;28;20671;-48
2021/03/24 12:39:40;;;;;;;44.30;28.63;;;13.00;99.90;;;;;;5032955;28;20259;-51
2021/03/24 12:42:20;;;;;;;43.47;28.07;;;13.10;99.90;;;;;;5038473;28;20188;-50
2021/03/24 12:44:46;;;;;;;43.80;28.50;;;13.30;99.90;;;;;;5037272;28;20270;-50
2021/03/24 12:47:27;;;;;;;41.27;26.43;;;13.30;99.90;;;;;;5029543;28;20278;-51
2021/03/24 12:50:16;;;;;;;45.33;27.60;;;13.30;99.90;;;;;;5049078;28;20217;-46
2021/03/24 12:53:03;;;;;;;43.70;28.63;;;13.30;99.90;;;;;;5042937;28;20263;-47
2021/03/24 12:55:31;;;;;;;41.67;27.60;;;13.50;99.90;;;;;;5035348;28;20180;-47
2021/03/24 12:58:18;;;;;;;43.90;28.37;;;13.50;99.90;;;;;;5043383;28;20199;-54
2021/03/24 13:01:21;;;;;;;47.07;29.67;;;13.50;99.90;;;;;;5040757;28;20648;-49
2021/03/24 13:04:03;;;;;;;45.03;28.87;;;13.50;99.90;;;;;;5042841;28;20249;-49
2021/03/24 13:06:51;;;;;;;51.07;30.63;;;13.70;99.90;;;;;;5044093;28;20254;-49
2021/03/24 13:09:35;;;;;;;40.53;26.83;;;14.00;99.90;;;;;;5035401;28;20206;-48
2021/03/24 13:12:09;;;;;;;40.67;26.63;;;13.90;99.90;;;;;;5036093;28;20195;-55
2021/03/24 13:14:58;;;;;;;50.20;30.77;;;13.90;99.90;;;;;;5040262;28;20187;-50
2021/03/24 13:17:48;;;;;;;44.63;29.23;;;13.90;99.90;;;;;;5042098;28;20231;-48
2021/03/24 13:20:30;;;;;;;46.07;28.73;;;14.00;99.90;;;;;;5030731;28;20232;-50
2021/03/24 13:23:17;;;;;;;46.57;30.60;;;14.30;99.90;;;;;;5040830;28;20653;-52
2021/03/24 13:26:23;;;;;;;45.40;29.40;;;14.60;99.90;;;;;;5039540;28;20211;-47
2021/03/24 13:28:53;;;;;;;47.67;30.60;;;14.80;98.80;;;;;;5044128;28;20269;-47
2021/03/24 13:31:27;;;;;;;47.80;30.87;;;14.80;99.90;;;;;;5036858;28;20274;-46
2021/03/24 13:34:08;;;;;;;48.53;30.97;;;14.70;99.90;;;;;;5051536;28;20183;-48
2021/03/24 13:36:55;;;;;;;44.77;29.73;;;14.90;99.60;;;;;;5044115;28;20667;-53